METAR Data
IDs: Format: Raw Decoded Include TAF

Data at: 0254 UTC 23 Sep 2018

METAR for:KRYW (Lago Vista/Allen Arp, TX, US)
Text:KRYW 230235Z AUTO 28006KT 10SM OVC021 20/18 A2998 RMK AO2 T01980181
Temperature: 19.8°C ( 68°F)
Dewpoint: 18.1°C ( 65°F) [RH = 90%]
Pressure (altimeter):29.98 inches Hg (1015.3 mb)
Winds:from the W (280 degrees) at 7 MPH (6 knots; 3.1 m/s)
Visibility:10 or more sm (16+ km)
Ceiling:2100 feet AGL
Clouds: overcast cloud deck at 2100 feet AGL
QC Flag:automated observation with no human augmentation